AirNav   Air Wisconsin Airman Trainee
 
 287 users online  

92MO Fox Run Heliport
Eureka, Missouri, USA

GOING TO EUREKA?


FAA INFORMATION EFFECTIVE 23 MAY 2019

Location

FAA Identifier: 92MO
Lat/Long: 38-26-38.1900N / 090-36-25.4500W
38-26.636500N / 090-36.424167W
38.4439417 / -90.6070694
(estimated)
Elevation: 510 ft. / 155 m (estimated)
Variation: 01E (1995)
From city: 2 miles E of EUREKA, MO
Time zone: UTC -5 (UTC -6 during Standard Time)
Zip code: 63025

Heliport Operations

Heliport use: Private use. Permission required prior to landing
Activation date: 07/1997
Control tower: no
ARTCC: KANSAS CITY CENTER
FSS: SAINT LOUIS FLIGHT SERVICE STATION
Attendance: JUN-OCT 0600-0000
Segmented circle: no
Lights: FOR PERIMETER LGTS CALL 314-938-4653.

Heliport Communications

WX ASOS at SUS (13 nm N): 134.8 (314-890-7255)

Nearby radio navigation aids

VOR radial/distance  VOR name  Freq  Var
CSXr212/21.8CARDINAL VOR/DME116.4500E
FTZr126/22.8FORISTELL VORTAC110.8005E
STLr192/25.7ST LOUIS VORTAC117.4001E
TOYr237/36.8TROY VORTAC116.0004E

 
NDB name  Hdg/Dist  Freq  Var  ID
SNOOP148/13.932601WSU ... ..-
EAVES192/14.322701WFZ ..-. --..
CIVIC MEMORIAL225/37.326301WCVM -.-. ...- --

Heliport Services

Runway Information

Helipad H1

Dimensions: 100 x 60 ft. / 30 x 18 m
Surface: concrete
Runway edge lights: PERI
Latitude: 38-26.636500N
Longitude: 090-36.424167W
Elevation: 510.0 ft.
Traffic pattern: leftleft

Heliport Ownership and Management from official FAA records

Ownership: Privately-owned
Owner: FOX RUN GOLF CLUB INC
1 PUTT LANE
EUREKA, MO 63025
Phone 314-938-3354
Manager: GARY AULT
1 PUTT LANE
EUREKA, MO 63025
Phone 314-938-3354

Additional Remarks

A52-H1 80 FT TREES 275 FT W.
FOR CD CTC ST LOUIS APCH AT 314-890-1018.

Instrument Procedures

There are no published instrument procedures at 92MO.

Some nearby airports with instrument procedures:

KSUS - Spirit of St Louis Airport (13 nm N)
1H0 - Creve Coeur Airport (18 nm N)
KFES - Festus Memorial Airport (18 nm SE)
KFYG - Washington Regional Airport (20 nm NW)
KSTL - St Louis Lambert International Airport (21 nm NE)
 
Loc | Ops | Rwys | IFR | FBO | Links
Com | Nav | Svcs | Stats | Notes

Kansas City Aviation Department
 
Area around 92MO (Fox Run Heliport)
 
Road maps at: MapQuest Bing Google
 
Aerial photo
No photo
 
Sectional chart

 
Airport distance calculator
Flying to Fox Run Heliport? Find the distance to fly.

From to 92MO

Sunrise and sunset
Times for 19-Jun-2019
 Local
(UTC-5)
 Zulu
(UTC)
Morning civil twilight05:0710:07
Sunrise05:3910:39
Sunset20:2801:28
Evening civil twilight21:0002:00

Current date and time
Zulu (UTC)  19-Jun-2019 08:07:15
Local (UTC-5)  19-Jun-2019 03:07:15
 
METAR
KSUS 
13nm N 
190754Z AUTO 00000KT 9SM FEW047 FEW060 SCT095 22/21 A2976 RMK AO2 SLP071 T02220206
KFYG 
20nm NW 
190735Z AUTO 13008G16KT 7SM FEW025 SCT038 BKN070 22/22 A2976 RMK AO2
KSTL 
22nm NE 
190751Z 09003KT 10SM BKN060 22/19 A2979 RMK AO2 SLP075 T02220194
KCPS 
23nm E 
190753Z AUTO 00000KT 8SM BKN065 22/21 A2978 RMK AO2 SLP079 T02220206 $
TAF
KSUS 
13nm N 
190520Z 1906/2006 VRB04KT P6SM SCT060 BKN250 FM190900 VRB04KT P6SM VCSH BKN050 FM191500 22007KT P6SM VCTS BKN040CB TEMPO 1922/1924 3SM TSRA OVC030CB FM200200 26006KT P6SM BKN040
NOTAMs
Click for the latest NOTAMs
NOTAMs are issued by the DoD/FAA and will open in a separate window not controlled by AirNav.

 

 
 

Would you like to see your business listed on this page?

 If your business provides an interesting product or service to pilots, flight crews, aircraft, or users of the Fox Run Heliport, you should consider listing it here.  To start the listing process, click on the button below
 
Add a business
 

Other Pages about Fox Run Heliport

Update a link
 
Copyright © AirNav, LLC. All rights reserved. Privacy Policy  Contact